Time;durP1;ratioP1;P1;durP2;ratioP2;P2;SDS_P1;SDS_P2;PMS_P1;PMS_P2;Temp;Humidity;BMP_temperature;BMP_pressure;BME280_temperature;BME280_humidity;BME280_pressure;Samples;Min_cycle;Max_cycle;Signal;HPM_P1;HPM_P2
2022/09/20 00:01:28;;;;;;;3.67;1.50;;;8.60;99.90;;;;;;5031442;28;20056;-76
2022/09/20 00:03:56;;;;;;;3.25;1.45;;;8.60;99.90;;;;;;5032247;28;20025;-77
2022/09/20 00:06:28;;;;;;;2.10;1.40;;;8.60;99.90;;;;;;5031941;28;20030;-76
2022/09/20 00:08:54;;;;;;;1.83;1.20;;;8.50;99.90;;;;;;5029899;28;20056;-76
2022/09/20 00:11:22;;;;;;;5.00;1.43;;;8.50;99.90;;;;;;5032391;28;20033;-77
2022/09/20 00:13:50;;;;;;;5.17;1.50;;;8.50;99.90;;;;;;5031311;28;20038;-77
2022/09/20 00:16:20;;;;;;;5.77;1.90;;;8.50;99.90;;;;;;5031490;28;20311;-77
2022/09/20 00:18:53;;;;;;;2.87;1.40;;;8.50;99.90;;;;;;5031420;28;20037;-77
2022/09/20 00:21:22;;;;;;;3.27;1.67;;;8.50;99.90;;;;;;5035445;28;20063;-77
2022/09/20 00:23:47;;;;;;;4.57;1.73;;;8.50;99.90;;;;;;5036031;28;20182;-77
2022/09/20 00:26:13;;;;;;;5.60;1.43;;;8.50;99.90;;;;;;5034985;28;20569;-77
2022/09/20 00:28:40;;;;;;;3.23;1.67;;;8.50;99.90;;;;;;5035367;28;20354;-77
2022/09/20 00:31:06;;;;;;;2.43;1.40;;;8.50;99.90;;;;;;5035120;28;20355;-76
2022/09/20 00:36:16;;;;;;;3.57;1.67;;;8.50;99.90;;;;;;5033541;28;20423;-76
2022/09/20 00:38:42;;;;;;;2.77;1.80;;;8.50;99.90;;;;;;5033250;28;20486;-77
2022/09/20 00:41:08;;;;;;;4.50;1.60;;;8.50;99.90;;;;;;5033253;28;20436;-76
2022/09/20 00:43:41;;;;;;;4.87;1.70;;;8.50;99.90;;;;;;5031655;28;20025;-77
2022/09/20 00:46:22;;;;;;;3.30;1.57;;;8.50;99.90;;;;;;5031167;28;20086;-77
2022/09/20 00:48:52;;;;;;;5.13;1.60;;;8.50;99.90;;;;;;5029366;28;20104;-76
2022/09/20 00:51:26;;;;;;;6.10;1.60;;;8.60;99.90;;;;;;5028345;28;20244;-76
2022/09/20 00:53:57;;;;;;;5.32;1.70;;;8.60;99.90;;;;;;5028969;28;20026;-76
2022/09/20 00:56:31;;;;;;;3.87;1.40;;;8.60;99.90;;;;;;5029502;28;20084;-76
2022/09/20 00:59:11;;;;;;;3.87;1.73;;;8.60;99.90;;;;;;5028811;28;20041;-76
2022/09/20 01:01:36;;;;;;;5.10;1.90;;;8.60;99.90;;;;;;5029118;28;20035;-76
2022/09/20 01:04:03;;;;;;;3.03;1.53;;;8.60;99.90;;;;;;5028972;28;20832;-76
2022/09/20 01:06:31;;;;;;;4.10;1.53;;;8.60;99.90;;;;;;5029244;28;20021;-76
2022/09/20 01:09:00;;;;;;;3.43;1.30;;;8.60;99.90;;;;;;5027129;28;20311;-76
2022/09/20 01:11:27;;;;;;;4.80;1.80;;;8.60;99.90;;;;;;5029099;28;20108;-76
2022/09/20 01:13:52;;;;;;;3.97;1.70;;;8.60;99.90;;;;;;5028834;28;20029;-76
2022/09/20 01:16:19;;;;;;;4.20;1.60;;;8.60;99.90;;;;;;5028339;28;20036;-76
2022/09/20 01:18:46;;;;;;;5.37;1.70;;;8.60;99.90;;;;;;5028485;28;20031;-76
2022/09/20 01:21:13;;;;;;;6.33;2.47;;;8.70;99.90;;;;;;5028769;28;20036;-76
2022/09/20 01:23:48;;;;;;;5.73;1.83;;;8.70;99.90;;;;;;5028394;28;20394;-76
2022/09/20 01:26:33;;;;;;;2.38;1.50;;;8.60;99.90;;;;;;5028800;28;20053;-76
2022/09/20 01:29:32;;;;;;;4.47;1.80;;;8.70;99.90;;;;;;5028503;28;20037;-76
2022/09/20 01:32:01;;;;;;;3.80;1.80;;;8.60;99.90;;;;;;5027672;28;20046;-76
2022/09/20 01:34:36;;;;;;;3.70;1.57;;;8.60;99.90;;;;;;5028605;28;20025;-76
2022/09/20 01:37:22;;;;;;;5.07;1.73;;;8.60;99.90;;;;;;5028155;28;20033;-76
2022/09/20 01:40:22;;;;;;;2.63;1.50;;;8.60;99.90;;;;;;5028904;28;20045;-76
2022/09/20 01:43:17;;;;;;;7.60;2.53;;;8.60;99.90;;;;;;5028006;28;20033;-76
2022/09/20 01:45:48;;;;;;;6.67;1.60;;;8.60;99.90;;;;;;5028370;28;20037;-76
2022/09/20 01:48:37;;;;;;;4.23;1.83;;;8.60;99.90;;;;;;5028559;28;20040;-76
2022/09/20 01:51:17;;;;;;;4.33;1.63;;;8.50;99.90;;;;;;5027552;28;20081;-81
2022/09/20 01:54:10;;;;;;;5.20;1.77;;;8.50;99.90;;;;;;5027985;28;20029;-81
2022/09/20 01:56:58;;;;;;;3.53;1.50;;;8.50;99.90;;;;;;5028373;28;20053;-81
2022/09/20 01:59:54;;;;;;;6.30;2.03;;;8.50;99.90;;;;;;5028392;28;20033;-81
2022/09/20 02:02:19;;;;;;;;;;;8.40;99.90;;;;;;5027458;28;20466;-81
2022/09/20 02:05:06;;;;;;;3.60;1.70;;;8.40;99.90;;;;;;5026975;28;19915;-81
2022/09/20 02:08:02;;;;;;;6.07;3.17;;;8.40;99.90;;;;;;5026294;28;20021;-81
2022/09/20 02:10:44;;;;;;;3.63;1.80;;;8.40;99.90;;;;;;5027542;28;20025;-81
2022/09/20 02:13:16;;;;;;;4.83;1.83;;;8.40;99.90;;;;;;5027493;28;20474;-81
2022/09/20 02:16:00;;;;;;;3.40;1.80;;;8.40;99.90;;;;;;5027667;28;20466;-81
2022/09/20 02:19:00;;;;;;;4.07;2.10;;;8.40;99.90;;;;;;5027023;28;20487;-81
2022/09/20 02:21:48;;;;;;;5.10;1.90;;;8.30;99.90;;;;;;5027149;28;20060;-81
2022/09/20 02:24:22;;;;;;;3.90;2.10;;;8.30;99.90;;;;;;5027210;28;20044;-81
2022/09/20 02:27:24;;;;;;;3.00;2.00;;;8.30;99.90;;;;;;5027420;28;20083;-81
2022/09/20 02:29:59;;;;;;;4.83;2.00;;;8.30;99.90;;;;;;5027735;28;20026;-81
2022/09/20 02:32:59;;;;;;;3.40;1.85;;;8.30;99.90;;;;;;5026686;28;20033;-81
2022/09/20 02:35:46;;;;;;;6.30;1.90;;;8.30;99.90;;;;;;5026931;28;20120;-81
2022/09/20 02:38:44;;;;;;;2.83;2.00;;;8.30;99.90;;;;;;5027178;28;20033;-81
2022/09/20 02:41:19;;;;;;;4.40;2.07;;;8.30;99.90;;;;;;5026747;28;20025;-81
2022/09/20 02:44:12;;;;;;;7.38;2.20;;;8.30;99.90;;;;;;5027051;28;20100;-81
2022/09/20 02:47:02;;;;;;;7.50;2.20;;;8.30;99.90;;;;;;5027668;28;20104;-81
2022/09/20 02:49:52;;;;;;;3.93;2.03;;;8.30;99.90;;;;;;5027170;28;20398;-81
2022/09/20 02:52:27;;;;;;;4.87;2.23;;;8.30;99.90;;;;;;5027277;28;20029;-81
2022/09/20 02:55:17;;;;;;;3.58;2.13;;;8.20;99.90;;;;;;5027295;28;20627;-81
2022/09/20 02:57:51;;;;;;;5.60;2.27;;;8.20;99.90;;;;;;5026497;28;20061;-81
2022/09/20 03:00:24;;;;;;;7.25;2.38;;;8.20;99.90;;;;;;5026956;28;20064;-81
2022/09/20 03:03:05;;;;;;;3.33;2.03;;;8.20;99.90;;;;;;5027116;28;20034;-81
2022/09/20 03:05:46;;;;;;;6.10;2.33;;;8.20;99.90;;;;;;5027262;28;20040;-81
2022/09/20 03:08:47;;;;;;;3.20;2.00;;;8.20;99.90;;;;;;5027567;28;20047;-81
2022/09/20 03:11:36;;;;;;;4.43;2.03;;;8.20;99.90;;;;;;5024214;28;20112;-81
2022/09/20 03:14:22;;;;;;;6.03;2.47;;;8.20;99.90;;;;;;5027365;28;20529;-80
2022/09/20 03:17:04;;;;;;;4.77;2.30;;;8.20;99.90;;;;;;5031336;28;20378;-81
2022/09/20 03:19:53;;;;;;;4.30;2.10;;;8.20;99.90;;;;;;5031094;28;20124;-81
2022/09/20 03:22:47;;;;;;;5.87;2.30;;;8.20;99.90;;;;;;5030819;28;20021;-81
2022/09/20 03:25:38;;;;;;;3.23;2.20;;;8.10;99.90;;;;;;5031082;28;20033;-81
2022/09/20 03:28:22;;;;;;;4.33;2.50;;;8.10;99.90;;;;;;5030413;28;20021;-81
2022/09/20 03:31:02;;;;;;;9.53;2.30;;;8.10;99.90;;;;;;5031058;28;20028;-81
2022/09/20 03:33:38;;;;;;;5.90;2.60;;;8.10;99.90;;;;;;5030678;28;20064;-81
2022/09/20 03:36:45;;;;;;;7.57;2.40;;;8.10;99.90;;;;;;5030541;28;20061;-81
2022/09/20 03:39:55;;;;;;;4.33;2.30;;;8.10;99.90;;;;;;5028622;28;20494;-81
2022/09/20 03:42:27;;;;;;;3.83;2.20;;;8.10;99.90;;;;;;5030749;28;20060;-81
2022/09/20 03:45:21;;;;;;;6.47;2.30;;;8.10;99.90;;;;;;5030930;28;20018;-81
2022/09/20 03:48:25;;;;;;;7.63;2.40;;;8.10;99.90;;;;;;5030617;28;20022;-81
2022/09/20 03:51:16;;;;;;;4.37;2.10;;;8.10;99.90;;;;;;5030612;28;20026;-81
2022/09/20 03:54:22;;;;;;;6.93;3.10;;;8.10;99.90;;;;;;5030746;28;20419;-81
2022/09/20 03:56:57;;;;;;;;;;;8.00;99.90;;;;;;5031132;28;20409;-81
2022/09/20 03:59:37;;;;;;;6.05;2.75;;;8.00;99.90;;;;;;5029144;28;19913;-82
2022/09/20 04:02:12;;;;;;;5.57;2.70;;;8.00;99.90;;;;;;5030969;28;20025;-81
2022/09/20 04:04:47;;;;;;;5.75;2.53;;;8.00;99.90;;;;;;5030036;28;20029;-81
2022/09/20 04:07:34;;;;;;;7.75;2.70;;;8.00;99.90;;;;;;5030069;28;20025;-81
2022/09/20 04:10:20;;;;;;;8.93;3.07;;;8.00;99.90;;;;;;5030543;28;20029;-81
2022/09/20 04:13:00;;;;;;;5.83;2.50;;;8.00;99.90;;;;;;5030613;28;20040;-81
2022/09/20 04:15:34;;;;;;;4.43;2.50;;;8.00;99.90;;;;;;5028865;28;20029;-81
2022/09/20 04:18:18;;;;;;;6.37;2.90;;;8.00;99.90;;;;;;5030020;28;20029;-81
2022/09/20 04:21:04;;;;;;;4.30;2.53;;;7.90;99.90;;;;;;5029210;28;20029;-81
2022/09/20 04:23:41;;;;;;;6.83;2.90;;;7.90;99.90;;;;;;5029992;28;20108;-81
2022/09/20 04:26:07;;;;;;;4.93;2.90;;;7.90;99.90;;;;;;5028664;28;20041;-81
2022/09/20 04:28:58;;;;;;;6.63;3.10;;;7.90;99.90;;;;;;5030029;28;20033;-81
2022/09/20 04:31:29;;;;;;;4.87;2.70;;;7.90;99.90;;;;;;5029514;28;20029;-81
2022/09/20 04:33:58;;;;;;;6.23;2.83;;;7.90;99.90;;;;;;5029428;28;20340;-81
2022/09/20 04:37:15;;;;;;;5.93;3.40;;;7.90;99.90;;;;;;5029431;28;20371;-81
2022/09/20 04:39:45;;;;;;;5.97;3.28;;;7.80;99.90;;;;;;5028281;28;21176;-81
2022/09/20 04:42:38;;;;;;;5.50;3.10;;;7.90;99.90;;;;;;5029740;28;20079;-81
2022/09/20 04:45:21;;;;;;;7.23;2.80;;;7.80;99.90;;;;;;5029477;28;20559;-81
2022/09/20 04:47:52;;;;;;;7.30;2.80;;;7.80;99.90;;;;;;5029276;28;20037;-81
2022/09/20 04:50:41;;;;;;;7.83;2.73;;;7.80;99.90;;;;;;5029451;28;20086;-81
2022/09/20 04:53:43;;;;;;;4.83;2.50;;;7.90;99.90;;;;;;5029399;28;20092;-81
2022/09/20 04:56:39;;;;;;;5.37;2.67;;;7.80;99.90;;;;;;5029480;28;20053;-81
2022/09/20 04:59:07;;;;;;;5.50;2.70;;;7.80;99.90;;;;;;5029311;28;20033;-81
2022/09/20 05:02:02;;;;;;;5.60;2.90;;;7.80;99.90;;;;;;5029552;28;20029;-76
2022/09/20 05:05:13;;;;;;;6.03;3.00;;;7.80;99.90;;;;;;5031101;28;20033;-76
2022/09/20 05:08:07;;;;;;;7.00;2.90;;;7.80;99.90;;;;;;5030896;28;20562;-76
2022/09/20 05:11:00;;;;;;;4.97;2.83;;;7.80;99.90;;;;;;5031515;28;20034;-76
2022/09/20 05:13:41;;;;;;;5.53;2.77;;;7.80;99.90;;;;;;5031019;28;20494;-76
2022/09/20 05:16:10;;;;;;;7.03;2.63;;;7.80;99.90;;;;;;5031531;28;20037;-77
2022/09/20 05:18:45;;;;;;;5.77;2.53;;;7.80;99.90;;;;;;5030103;28;20037;-76
2022/09/20 05:21:54;;;;;;;6.47;3.75;;;7.80;99.90;;;;;;5030772;28;20474;-76
2022/09/20 05:24:31;;;;;;;7.50;2.90;;;7.80;99.90;;;;;;5029531;28;20117;-76
2022/09/20 05:27:18;;;;;;;5.37;2.60;;;7.80;99.90;;;;;;5030263;28;20132;-76
2022/09/20 05:29:58;;;;;;;5.67;3.13;;;7.80;99.90;;;;;;5030377;28;20029;-76
2022/09/20 05:32:41;;;;;;;7.60;2.60;;;7.80;99.90;;;;;;5030152;28;20025;-76
2022/09/20 05:35:31;;;;;;;6.43;2.90;;;7.80;99.90;;;;;;5030419;28;20032;-77
2022/09/20 05:38:16;;;;;;;7.47;3.07;;;7.80;99.90;;;;;;5029593;28;20029;-77
2022/09/20 05:41:03;;;;;;;7.10;2.75;;;7.90;99.90;;;;;;5029803;28;20037;-77
2022/09/20 05:43:35;;;;;;;7.90;2.50;;;7.90;99.90;;;;;;5030256;28;20040;-76
2022/09/20 05:46:13;;;;;;;4.43;3.00;;;7.90;99.90;;;;;;5029593;28;20037;-76
2022/09/20 05:49:02;;;;;;;10.67;3.93;;;7.90;99.90;;;;;;5030600;28;20056;-77
2022/09/20 05:51:48;;;;;;;10.40;3.17;;;8.00;99.90;;;;;;5030311;28;20029;-77
2022/09/20 05:54:52;;;;;;;6.63;3.73;;;8.10;99.90;;;;;;5029741;28;20033;-76
2022/09/20 05:57:55;;;;;;;5.13;2.70;;;8.10;99.90;;;;;;5029612;28;20052;-76
2022/09/20 06:00:26;;;;;;;6.57;2.67;;;8.10;99.90;;;;;;5029340;28;20029;-77
2022/09/20 06:03:08;;;;;;;7.90;2.77;;;8.10;99.90;;;;;;5029450;28;20075;-77
2022/09/20 06:05:45;;;;;;;7.63;3.27;;;8.20;99.90;;;;;;5029432;28;20374;-76
2022/09/20 06:08:23;;;;;;;9.37;3.50;;;8.20;99.90;;;;;;5029417;28;20039;-76
2022/09/20 06:11:13;;;;;;;6.63;2.60;;;8.30;99.90;;;;;;5030636;28;20486;-76
2022/09/20 06:14:00;;;;;;;8.20;2.97;;;8.30;99.90;;;;;;5029712;28;20425;-77
2022/09/20 06:16:55;;;;;;;5.77;2.57;;;8.40;99.90;;;;;;5029376;28;20475;-77
2022/09/20 06:20:03;;;;;;;5.80;2.40;;;8.50;99.90;;;;;;5028308;28;20045;-77
2022/09/20 06:22:39;;;;;;;8.80;2.83;;;8.50;99.90;;;;;;5026734;28;20026;-76
2022/09/20 06:25:08;;;;;;;6.03;2.77;;;8.50;99.90;;;;;;5029033;28;20036;-76
2022/09/20 06:27:49;;;;;;;8.53;3.00;;;8.60;99.90;;;;;;5029376;28;20017;-76
2022/09/20 06:30:25;;;;;;;6.10;2.80;;;8.50;99.90;;;;;;5029439;28;20394;-76
2022/09/20 06:32:58;;;;;;;;;;;8.60;99.90;;;;;;5029411;28;20057;-77
2022/09/20 06:35:30;;;;;;;10.53;3.57;;;8.60;99.90;;;;;;5029184;28;19909;-76
2022/09/20 06:41:27;;;;;;;11.43;3.40;;;8.70;99.90;;;;;;5028601;28;20086;-76
2022/09/20 06:44:02;;;;;;;11.37;3.50;;;8.70;99.90;;;;;;5028843;28;20025;-76
2022/09/20 06:46:29;;;;;;;;;;;8.80;99.90;;;;;;5029111;28;20029;-77
2022/09/20 06:48:55;;;;;;;8.40;3.73;;;8.80;99.90;;;;;;5028080;28;19916;-77
2022/09/20 06:51:22;;;;;;;11.53;4.10;;;8.90;99.90;;;;;;5028931;28;20033;-76
2022/09/20 06:53:48;;;;;;;6.83;3.87;;;8.90;99.90;;;;;;5028945;28;20037;-76
2022/09/20 06:56:21;;;;;;;11.43;4.13;;;8.90;99.90;;;;;;5029310;28;20613;-76
2022/09/20 06:58:47;;;;;;;15.37;4.33;;;9.00;99.90;;;;;;5028623;28;20035;-76
2022/09/20 07:01:13;;;;;;;8.43;3.30;;;9.00;99.90;;;;;;5028545;28;20474;-77
2022/09/20 07:03:41;;;;;;;7.50;3.30;;;9.10;99.90;;;;;;5028843;28;20033;-76
2022/09/20 07:06:08;;;;;;;7.60;3.27;;;9.10;99.90;;;;;;5028794;28;20029;-76
2022/09/20 07:08:34;;;;;;;7.37;3.43;;;9.30;99.90;;;;;;5028932;28;20072;-77
2022/09/20 07:11:09;;;;;;;7.90;3.47;;;9.30;99.90;;;;;;5027005;28;20029;-76
2022/09/20 07:13:35;;;;;;;12.00;3.78;;;9.40;99.90;;;;;;5028640;28;20025;-76
2022/09/20 07:16:04;;;;;;;5.53;2.53;;;9.50;99.90;;;;;;5028332;28;20037;-76
2022/09/20 07:18:30;;;;;;;8.80;2.60;;;9.50;99.90;;;;;;5027912;28;20022;-77
2022/09/20 07:20:57;;;;;;;9.53;3.17;;;9.60;99.90;;;;;;5028006;28;20378;-76
2022/09/20 07:23:24;;;;;;;7.10;3.20;;;9.70;99.90;;;;;;5028055;28;20022;-76
2022/09/20 07:25:50;;;;;;;8.67;2.93;;;9.60;99.90;;;;;;5026747;28;20377;-76
2022/09/20 07:28:18;;;;;;;8.73;2.60;;;9.60;99.90;;;;;;5028285;28;20017;-77
2022/09/20 07:30:44;;;;;;;7.03;2.90;;;9.50;99.90;;;;;;5028394;28;20040;-77
2022/09/20 07:33:10;;;;;;;7.87;3.00;;;9.40;99.90;;;;;;5027591;28;20120;-81
2022/09/20 07:35:36;;;;;;;8.03;3.30;;;9.40;99.90;;;;;;5026983;28;20029;-80
2022/09/20 07:38:02;;;;;;;7.27;3.33;;;9.40;99.90;;;;;;5026859;28;20036;-81
2022/09/20 07:40:27;;;;;;;7.07;3.30;;;9.30;99.90;;;;;;5026606;28;20032;-81
2022/09/20 07:42:55;;;;;;;10.37;3.50;;;9.30;99.90;;;;;;5026915;28;20033;-80
2022/09/20 07:45:22;;;;;;;11.50;3.13;;;9.30;99.90;;;;;;5027105;28;20049;-80
2022/09/20 07:47:48;;;;;;;11.10;3.70;;;9.20;99.90;;;;;;5027006;28;20059;-80
2022/09/20 07:50:13;;;;;;;6.17;3.63;;;9.20;99.90;;;;;;5026803;28;20038;-81
2022/09/20 07:52:39;;;;;;;15.33;3.50;;;9.20;99.90;;;;;;5026395;28;20037;-80
2022/09/20 07:55:05;;;;;;;8.17;3.93;;;9.20;99.90;;;;;;5026461;28;20040;-80
2022/09/20 07:57:36;;;;;;;8.83;3.67;;;9.20;99.90;;;;;;5025821;28;20060;-80
2022/09/20 08:00:03;;;;;;;9.57;3.93;;;9.20;99.90;;;;;;5027238;28;20386;-80
2022/09/20 08:02:28;;;;;;;10.17;3.80;;;9.30;99.90;;;;;;5030020;28;20025;-79
2022/09/20 08:04:54;;;;;;;9.13;4.03;;;9.30;99.90;;;;;;5031058;28;20040;-79
2022/09/20 08:07:19;;;;;;;10.90;3.90;;;9.30;99.90;;;;;;5030294;28;20032;-80
2022/09/20 08:09:45;;;;;;;7.23;3.37;;;9.40;99.90;;;;;;5029659;28;20120;-80
2022/09/20 08:12:12;;;;;;;10.00;4.27;;;9.40;99.90;;;;;;5029911;28;20116;-80
2022/09/20 08:14:37;;;;;;;9.77;4.13;;;9.40;99.90;;;;;;5030085;28;20482;-80
2022/09/20 08:17:03;;;;;;;8.60;4.30;;;9.50;99.90;;;;;;5031224;28;20029;-80
2022/09/20 08:19:29;;;;;;;10.27;4.50;;;9.50;99.90;;;;;;5029596;28;20029;-79
2022/09/20 08:21:55;;;;;;;10.07;4.80;;;9.60;99.90;;;;;;5029925;28;20033;-80
2022/09/20 08:24:20;;;;;;;9.05;4.85;;;9.70;99.90;;;;;;5029590;28;20561;-79
2022/09/20 08:26:47;;;;;;;10.40;4.73;;;9.70;99.90;;;;;;5029492;28;20022;-79
2022/09/20 08:29:14;;;;;;;14.67;4.83;;;9.90;99.90;;;;;;5029721;28;20037;-80
2022/09/20 08:31:41;;;;;;;11.05;4.45;;;10.00;99.90;;;;;;5029904;28;20059;-79
2022/09/20 08:34:09;;;;;;;7.93;4.30;;;10.20;99.90;;;;;;5029943;28;20084;-79
2022/09/20 08:36:39;;;;;;;9.90;4.75;;;10.40;99.90;;;;;;5029815;28;20338;-80
2022/09/20 08:39:05;;;;;;;10.40;4.50;;;10.60;99.90;;;;;;5029796;28;20033;-80
2022/09/20 08:41:46;;;;;;;9.65;4.55;;;10.80;99.90;;;;;;5029792;28;20026;-81
2022/09/20 08:44:32;;;;;;;9.57;4.18;;;11.00;99.90;;;;;;5029605;28;20056;-81
2022/09/20 08:47:01;;;;;;;;;;;11.00;99.90;;;;;;5030233;28;20026;-81
2022/09/20 08:49:29;;;;;;;12.25;5.10;;;11.00;99.90;;;;;;5029571;28;19913;-81
2022/09/20 08:51:57;;;;;;;10.07;4.40;;;10.90;99.90;;;;;;5029315;28;20037;-82
2022/09/20 08:54:24;;;;;;;10.57;4.65;;;10.90;99.90;;;;;;5029050;28;20055;-81
2022/09/20 08:56:50;;;;;;;11.23;5.75;;;10.90;99.90;;;;;;5029229;28;20046;-81
2022/09/20 08:59:19;;;;;;;9.82;4.30;;;11.00;99.90;;;;;;5029495;28;20034;-81
2022/09/20 09:01:47;;;;;;;13.38;4.88;;;11.10;99.90;;;;;;5029383;28;20022;-81
2022/09/20 09:04:20;;;;;;;12.77;4.90;;;11.10;99.90;;;;;;5029829;28;20056;-82
2022/09/20 09:06:47;;;;;;;12.13;4.97;;;11.20;99.90;;;;;;5030133;28;20473;-81
2022/09/20 09:09:28;;;;;;;9.80;4.60;;;11.20;99.90;;;;;;5030179;28;20095;-81
2022/09/20 09:11:55;;;;;;;12.90;4.38;;;11.40;99.90;;;;;;5029127;28;20025;-82
2022/09/20 09:17:15;;;;;;;11.30;4.85;;;11.90;99.90;;;;;;5029572;28;20036;-81
2022/09/20 09:19:52;;;;;;;11.88;4.13;;;12.00;99.90;;;;;;5029845;28;20036;-82
2022/09/20 09:22:34;;;;;;;10.10;3.63;;;12.10;99.90;;;;;;5029040;28;20018;-81
2022/09/20 09:25:28;;;;;;;10.50;4.07;;;12.10;99.90;;;;;;5029969;28;20022;-81
2022/09/20 09:27:57;;;;;;;8.98;3.40;;;12.20;99.90;;;;;;5028760;28;20359;-82
2022/09/20 09:30:35;;;;;;;6.22;3.35;;;12.10;99.90;;;;;;5028802;28;20109;-82
2022/09/20 09:33:27;;;;;;;9.73;3.35;;;12.00;99.90;;;;;;5028545;28;20041;-82
2022/09/20 09:36:19;;;;;;;6.13;2.65;;;11.90;99.90;;;;;;5029503;28;20105;-82
2022/09/20 09:38:46;;;;;;;12.52;3.10;;;11.80;99.90;;;;;;5028626;28;20029;-81
2022/09/20 09:41:25;;;;;;;11.13;2.97;;;11.80;99.90;;;;;;5029328;28;20052;-82
2022/09/20 09:44:01;;;;;;;6.63;2.63;;;11.70;99.90;;;;;;5028855;28;20067;-82
2022/09/20 09:46:32;;;;;;;11.80;3.20;;;11.70;99.90;;;;;;5028408;28;20036;-82
2022/09/20 09:49:28;;;;;;;6.03;2.80;;;11.70;99.90;;;;;;5028000;28;20050;-82
2022/09/20 09:52:02;;;;;;;;;;;11.80;99.90;;;;;;5028466;28;20661;-82
2022/09/20 09:54:39;;;;;;;11.73;2.70;;;11.80;99.90;;;;;;5029130;28;20282;-81
2022/09/20 09:57:27;;;;;;;10.43;2.60;;;12.00;99.90;;;;;;5027976;28;20057;-82
2022/09/20 10:00:12;;;;;;;6.90;2.13;;;12.00;99.90;;;;;;5028666;28;20458;-81
2022/09/20 10:03:15;;;;;;;7.07;2.13;;;12.00;99.90;;;;;;5028174;28;20112;-81
2022/09/20 10:05:47;;;;;;;6.63;2.33;;;12.00;99.90;;;;;;5029466;28;20033;-76
2022/09/20 10:08:23;;;;;;;8.18;1.90;;;11.90;99.90;;;;;;5029232;28;20032;-77
2022/09/20 10:11:15;;;;;;;8.63;2.47;;;11.80;99.90;;;;;;5029474;28;20025;-77
2022/09/20 10:13:50;;;;;;;9.77;3.38;;;11.80;99.90;;;;;;5028047;28;20025;-77
2022/09/20 10:16:34;;;;;;;11.40;2.55;;;11.90;99.90;;;;;;5029225;28;20092;-77
2022/09/20 10:19:14;;;;;;;7.78;2.80;;;12.10;99.90;;;;;;5028916;28;20029;-77
2022/09/20 10:22:06;;;;;;;6.82;2.85;;;12.20;99.90;;;;;;5029600;28;20025;-77
2022/09/20 10:24:49;;;;;;;5.63;2.22;;;12.20;99.90;;;;;;5028854;28;20030;-77
2022/09/20 10:27:24;;;;;;;8.45;2.60;;;12.20;99.90;;;;;;5030105;28;20071;-77
2022/09/20 10:30:19;;;;;;;7.47;3.13;;;12.00;99.90;;;;;;5029545;28;20029;-77
2022/09/20 10:33:08;;;;;;;8.93;3.07;;;12.00;99.90;;;;;;5029031;28;20037;-77
2022/09/20 10:35:55;;;;;;;10.52;2.30;;;11.90;99.90;;;;;;5028531;28;20038;-77
2022/09/20 10:38:40;;;;;;;9.07;2.60;;;12.00;99.90;;;;;;5029592;28;20045;-77
2022/09/20 10:44:35;;;;;;;11.27;3.10;;;12.10;99.90;;;;;;5029241;28;20377;-76
2022/09/20 10:47:05;;;;;;;6.03;2.35;;;12.10;99.90;;;;;;5028541;28;20045;-77
2022/09/20 10:49:40;;;;;;;10.65;2.53;;;12.00;99.90;;;;;;5028849;28;20064;-77
2022/09/20 10:52:39;;;;;;;7.53;2.35;;;12.10;99.90;;;;;;5028847;28;20155;-77
2022/09/20 10:55:35;;;;;;;6.03;2.50;;;12.20;99.90;;;;;;5028823;28;20029;-77
2022/09/20 10:58:46;;;;;;;6.32;2.47;;;12.40;99.90;;;;;;5028901;28;20124;-77
2022/09/20 11:01:45;;;;;;;7.93;2.58;;;12.60;99.90;;;;;;5029412;28;20029;-76
2022/09/20 11:04:41;;;;;;;7.90;2.78;;;13.00;99.90;;;;;;5028606;28;20053;-77
2022/09/20 11:07:13;;;;;;;7.38;2.17;;;13.60;99.90;;;;;;5029517;28;20025;-77
2022/09/20 11:09:45;;;;;;;10.27;2.85;;;14.20;99.90;;;;;;5028926;28;20030;-77
2022/09/20 11:12:25;;;;;;;7.72;2.53;;;14.80;99.90;;;;;;5027469;28;20076;-82
2022/09/20 11:15:16;;;;;;;6.80;2.10;;;15.30;99.90;;;;;;5027192;28;20307;-81
2022/09/20 11:18:04;;;;;;;10.25;2.40;;;15.70;99.90;;;;;;5026992;28;20430;-82
2022/09/20 11:20:36;;;;;;;8.73;2.13;;;15.90;99.90;;;;;;5027300;28;20059;-82
2022/09/20 11:23:10;;;;;;;7.80;1.90;;;16.10;99.90;;;;;;5027138;28;20129;-81
2022/09/20 11:25:50;;;;;;;6.47;1.98;;;15.70;99.90;;;;;;5026743;28;20053;-81
2022/09/20 11:28:25;;;;;;;6.00;1.85;;;15.50;99.90;;;;;;5027032;28;20055;-82
2022/09/20 11:31:13;;;;;;;9.88;1.70;;;15.30;99.90;;;;;;5026904;28;20541;-82
2022/09/20 11:33:44;;;;;;;7.40;1.85;;;15.00;99.90;;;;;;5026509;28;20073;-82
2022/09/20 11:36:21;;;;;;;6.63;1.70;;;15.00;99.90;;;;;;5029959;28;20034;-81
2022/09/20 11:39:02;;;;;;;5.50;1.80;;;14.80;99.90;;;;;;5030685;28;20068;-82
2022/09/20 11:41:29;;;;;;;6.07;1.70;;;14.50;99.90;;;;;;5031687;28;20033;-81
2022/09/20 11:44:00;;;;;;;7.68;1.83;;;14.30;99.90;;;;;;5031104;28;20041;-81
2022/09/20 11:46:34;;;;;;;6.38;1.80;;;14.30;99.90;;;;;;5031333;28;20525;-82
2022/09/20 11:49:14;;;;;;;6.30;1.73;;;14.20;99.90;;;;;;5031225;28;20351;-82
2022/09/20 11:51:49;;;;;;;8.35;2.30;;;14.20;99.90;;;;;;5030844;28;20466;-82
2022/09/20 11:54:27;;;;;;;7.97;1.92;;;14.30;99.90;;;;;;5030882;28;20474;-82
2022/09/20 11:56:55;;;;;;;11.45;2.20;;;14.50;99.90;;;;;;5030493;28;20049;-82
2022/09/20 11:59:51;;;;;;;6.97;1.77;;;14.70;99.90;;;;;;5030218;28;20076;-82
2022/09/20 12:02:17;;;;;;;;;;;14.70;99.90;;;;;;5030800;28;20053;-82
2022/09/20 12:04:45;;;;;;;6.43;1.58;;;14.70;99.90;;;;;;5030489;28;19905;-82
2022/09/20 12:07:18;;;;;;;5.80;2.10;;;14.70;99.90;;;;;;5030228;28;20498;-81
2022/09/20 12:09:50;;;;;;;8.10;2.05;;;14.80;99.90;;;;;;5030660;28;20072;-82
2022/09/20 12:12:40;;;;;;;4.20;1.48;;;14.90;99.90;;;;;;5030249;28;20021;-81
2022/09/20 12:15:40;;;;;;;6.90;1.75;;;14.90;99.90;;;;;;5030240;28;20032;-82
2022/09/20 12:18:27;;;;;;;7.45;1.85;;;15.00;99.90;;;;;;5029855;28;20431;-82
2022/09/20 12:21:00;;;;;;;10.30;2.40;;;15.00;99.90;;;;;;5029996;28;20115;-81
2022/09/20 12:23:39;;;;;;;8.32;2.28;;;14.90;99.90;;;;;;5030352;28;20063;-81
2022/09/20 12:26:31;;;;;;;6.90;1.75;;;14.90;99.90;;;;;;5030698;28;20482;-82
2022/09/20 12:29:00;;;;;;;7.90;2.13;;;14.90;99.90;;;;;;5029911;28;20049;-82
2022/09/20 12:31:32;;;;;;;10.95;1.92;;;14.80;99.90;;;;;;5031004;28;20033;-81
2022/09/20 12:34:03;;;;;;;10.93;2.92;;;14.70;99.90;;;;;;5030607;28;20033;-81
2022/09/20 12:36:35;;;;;;;7.32;2.50;;;14.90;99.90;;;;;;5030237;28;20033;-81
2022/09/20 12:39:12;;;;;;;6.55;1.95;;;15.00;99.90;;;;;;5030152;28;20033;-82
2022/09/20 12:41:57;;;;;;;6.60;1.77;;;15.10;99.90;;;;;;5029979;28;20025;-81
2022/09/20 12:44:30;;;;;;;6.55;1.77;;;15.20;99.90;;;;;;5030639;28;20048;-81
2022/09/20 12:47:00;;;;;;;6.72;1.52;;;15.20;99.90;;;;;;5029070;28;20037;-81
2022/09/20 12:55:06;;;;;;;5.57;1.52;;;15.70;99.90;;;;;;5034226;28;20561;-81
2022/09/20 12:57:32;;;;;;;4.20;1.60;;;15.60;99.90;;;;;;5033726;28;20099;-81
2022/09/20 13:00:04;;;;;;;7.07;1.73;;;15.70;99.90;;;;;;5033865;28;20143;-81
2022/09/20 13:02:56;;;;;;;5.75;1.60;;;15.90;99.90;;;;;;5034022;28;20022;-81
2022/09/20 13:05:35;;;;;;;5.05;1.80;;;16.10;99.90;;;;;;5033636;28;20026;-81
2022/09/20 13:08:19;;;;;;;4.88;1.55;;;16.20;99.90;;;;;;5032710;28;20048;-81
2022/09/20 13:11:29;;;;;;;7.23;1.63;;;16.10;99.90;;;;;;5031074;28;20497;-81
2022/09/20 13:13:59;;;;;;;4.93;1.65;;;16.10;99.90;;;;;;5030449;28;20045;-81
2022/09/20 13:16:35;;;;;;;4.20;1.58;;;16.10;99.90;;;;;;5030595;28;20120;-81
2022/09/20 13:19:29;;;;;;;4.25;1.73;;;15.90;99.90;;;;;;5029539;28;20036;-81
2022/09/20 13:22:04;;;;;;;7.20;1.70;;;15.90;99.90;;;;;;5030971;28;20029;-81
2022/09/20 13:24:31;;;;;;;;;;;16.10;99.90;;;;;;5031079;28;20028;-81
2022/09/20 13:27:05;;;;;;;6.82;1.70;;;16.00;99.90;;;;;;5030557;28;19913;-81
2022/09/20 13:29:43;;;;;;;6.50;1.73;;;16.10;99.90;;;;;;5030785;28;20040;-81
2022/09/20 13:32:29;;;;;;;5.57;1.45;;;16.00;99.90;;;;;;5030653;28;20394;-82
2022/09/20 13:35:30;;;;;;;5.78;1.90;;;16.00;99.90;;;;;;5030874;28;20033;-81
2022/09/20 13:37:57;;;;;;;6.63;1.70;;;15.60;99.90;;;;;;5030311;28;20045;-81
2022/09/20 13:40:24;;;;;;;5.07;1.25;;;15.50;99.90;;;;;;5030540;28;20021;-81
2022/09/20 13:42:54;;;;;;;6.20;1.70;;;15.20;99.90;;;;;;5030244;28;20037;-81
2022/09/20 13:45:20;;;;;;;4.20;1.40;;;14.90;99.90;;;;;;5028800;28;20102;-82
2022/09/20 13:47:51;;;;;;;6.03;1.55;;;14.70;99.90;;;;;;5029025;28;20084;-81
2022/09/20 13:50:22;;;;;;;7.53;1.65;;;14.60;99.90;;;;;;5029010;28;20038;-82
2022/09/20 13:52:51;;;;;;;6.68;1.50;;;14.70;99.90;;;;;;5029015;28;20116;-82
2022/09/20 13:55:26;;;;;;;4.30;1.52;;;14.60;99.90;;;;;;5028333;28;20120;-82
2022/09/20 13:57:56;;;;;;;4.43;1.77;;;14.60;99.90;;;;;;5028736;28;20048;-81
2022/09/20 14:00:26;;;;;;;8.48;1.75;;;14.70;99.90;;;;;;5028561;28;20033;-81
2022/09/20 14:02:53;;;;;;;6.32;1.75;;;14.90;99.90;;;;;;5029261;28;20624;-82
2022/09/20 14:05:23;;;;;;;6.57;1.60;;;15.20;99.90;;;;;;5028785;28;20025;-81
2022/09/20 14:07:49;;;;;;;4.10;1.52;;;15.40;99.90;;;;;;5028623;28;20026;-81